Time;durP1;ratioP1;P1;durP2;ratioP2;P2;SDS_P1;SDS_P2;PMS_P1;PMS_P2;Temp;Humidity;BMP_temperature;BMP_pressure;BME280_temperature;BME280_humidity;BME280_pressure;Samples;Min_cycle;Max_cycle;Signal;HPM_P1;HPM_P2
2023/10/04 00:01:24;;;;;;;6.83;1.43;;;;;;;13.83;79.95;100566.47;31211567;28;97263;-77
2023/10/04 00:16:26;;;;;;;8.53;1.53;;;;;;;13.44;79.75;100604.97;31209690;28;97084;-61
2023/10/04 00:31:26;;;;;;;5.13;1.93;;;;;;;13.23;80.02;100634.16;31210034;28;96822;-64
2023/10/04 00:46:26;;;;;;;4.07;1.58;;;;;;;12.94;80.03;100673.09;31207586;27;112842;-77
2023/10/04 01:01:27;;;;;;;4.78;1.70;;;;;;;12.82;79.89;100696.69;31216108;28;97489;-76
2023/10/04 01:16:27;;;;;;;4.72;1.60;;;;;;;12.58;79.80;100722.50;31226699;28;117797;-71
2023/10/04 01:31:27;;;;;;;6.15;1.65;;;;;;;12.35;79.36;100739.22;31226646;28;97157;-78
2023/10/04 01:46:28;;;;;;;4.13;1.60;;;;;;;12.17;80.05;100741.25;31224514;27;105486;-70
2023/10/04 02:01:28;;;;;;;6.63;2.17;;;;;;;12.16;80.21;100776.97;31225246;28;97352;-72
2023/10/04 02:16:29;;;;;;;3.90;1.27;;;;;;;12.50;79.38;100784.81;31221855;28;97117;-84
2023/10/04 02:31:30;;;;;;;6.18;1.90;;;;;;;12.45;78.74;100792.53;31221909;28;96801;-81
2023/10/04 02:46:30;;;;;;;5.23;1.90;;;;;;;12.06;78.55;100779.00;31218659;27;97356;-79
2023/10/04 03:01:31;;;;;;;4.95;2.10;;;;;;;11.83;78.64;100798.28;31216369;28;106821;-79
2023/10/04 03:16:31;;;;;;;5.65;2.03;;;;;;;11.99;78.83;100824.22;31212279;28;109751;-72
2023/10/04 03:31:33;;;;;;;4.38;1.80;;;;;;;11.70;78.54;100836.13;31212924;27;107005;-78
2023/10/04 03:46:33;;;;;;;4.03;2.00;;;;;;;11.93;79.06;100847.03;31256094;28;97136;-72
2023/10/04 04:01:34;;;;;;;4.50;1.70;;;;;;;12.06;78.17;100856.44;31225989;28;110953;-71
2023/10/04 04:16:34;;;;;;;6.07;1.90;;;;;;;12.03;78.12;100878.97;31194192;28;97504;-71
2023/10/04 04:31:34;;;;;;;4.70;1.90;;;;;;;12.06;77.86;100910.66;31188890;28;97529;-63
2023/10/04 04:46:35;;;;;;;5.05;1.50;;;;;;;12.06;77.26;100904.50;31225323;28;96990;-69
2023/10/04 05:01:38;;;;;;;3.67;1.50;;;;;;;11.91;76.81;100925.63;31224405;28;97370;-83
2023/10/04 05:16:39;;;;;;;8.23;1.60;;;;;;;11.67;76.95;100920.00;31225048;28;97169;-74
2023/10/04 05:31:42;;;;;;;6.03;1.42;;;;;;;11.76;77.11;100949.41;31227220;28;97138;-83
2023/10/04 05:46:44;;;;;;;5.13;1.03;;;;;;;12.02;76.21;100960.88;31225196;27;97585;-67
2023/10/04 06:01:45;;;;;;;3.13;1.47;;;;;;;12.57;76.08;100987.28;31220722;28;97388;-72
2023/10/04 06:16:47;;;;;;;4.90;1.90;;;;;;;13.21;74.42;101012.41;31217517;28;96817;-74
2023/10/04 06:31:47;;;;;;;6.25;1.65;;;;;;;13.87;72.82;101023.06;31214394;28;97706;-60
2023/10/04 06:46:48;;;;;;;5.63;1.40;;;;;;;14.62;71.70;101020.06;31213056;27;104690;-66
2023/10/04 07:01:48;;;;;;;4.70;1.23;;;;;;;15.45;69.02;101021.16;31213178;27;97259;-60
2023/10/04 07:16:48;;;;;;;4.53;1.48;;;;;;;16.40;65.88;101037.59;31211884;28;101700;-60
2023/10/04 07:31:50;;;;;;;2.72;0.95;;;;;;;17.03;62.41;101029.84;31212174;28;96872;-66
2023/10/04 07:46:50;;;;;;;4.90;1.40;;;;;;;17.62;60.47;101053.94;31206354;28;97112;-62
2023/10/04 08:01:51;;;;;;;2.88;1.17;;;;;;;17.76;57.98;101051.16;31206698;28;101909;-62
2023/10/04 08:16:52;;;;;;;6.05;1.52;;;;;;;19.06;55.70;101063.19;31205209;28;96794;-66
2023/10/04 08:31:53;;;;;;;3.27;1.20;;;;;;;23.88;49.28;101062.06;31204619;28;97722;-65
2023/10/04 08:46:55;;;;;;;5.33;1.47;;;;;;;24.18;41.21;101066.53;31203357;27;97407;-62
2023/10/04 09:01:59;;;;;;;4.00;1.30;;;;;;;21.99;42.67;101062.19;31186149;28;96847;-62
2023/10/04 09:17:14;;;;;;;3.90;1.30;;;;;;;22.17;40.73;101050.53;31204902;27;97195;-62
2023/10/04 09:32:16;;;;;;;6.07;1.50;;;;;;;20.62;42.41;101072.53;31221065;28;97679;-76
2023/10/04 09:47:16;;;;;;;3.73;1.10;;;;;;;19.25;44.96;101075.88;31217880;27;96790;-64
2023/10/04 10:02:21;;;;;;;4.95;1.30;;;;;;;19.75;45.11;101083.59;31216831;28;100336;-69
2023/10/04 10:17:23;;;;;;;5.00;1.23;;;;;;;19.31;45.22;101073.41;31215218;28;97251;-65
2023/10/04 10:32:24;;;;;;;4.00;1.50;;;;;;;20.08;44.65;101057.53;31214035;27;97310;-72
2023/10/04 10:47:25;;;;;;;4.05;1.20;;;;;;;20.39;44.34;101073.03;31214919;27;97194;-66
2023/10/04 11:02:26;;;;;;;3.20;1.00;;;;;;;20.26;43.32;101063.13;31216030;28;97556;-62
2023/10/04 11:17:26;;;;;;;2.80;1.10;;;;;;;18.96;45.77;101046.53;31212057;28;97102;-74
2023/10/04 11:32:28;;;;;;;5.30;1.42;;;;;;;18.37;46.49;101057.75;31210758;28;107206;-77
2023/10/04 11:47:32;;;;;;;3.60;1.27;;;;;;;18.50;47.26;101051.56;31206740;27;97545;-66
2023/10/04 12:02:32;;;;;;;3.87;1.30;;;;;;;21.92;41.81;101035.13;31205977;28;97324;-62
2023/10/04 12:17:34;;;;;;;6.50;1.87;;;;;;;26.26;37.79;101039.75;31206463;28;96797;-64
2023/10/04 12:32:35;;;;;;;3.63;1.37;;;;;;;35.82;23.20;101020.75;31203762;28;97795;-63
2023/10/04 12:47:36;;;;;;;4.97;1.57;;;;;;;38.60;19.34;101029.84;31203742;28;98391;-76
2023/10/04 13:02:36;;;;;;;4.65;1.90;;;;;;;37.33;19.02;101032.41;31216954;27;97548;-64
2023/10/04 13:17:39;;;;;;;4.43;1.47;;;;;;;36.99;18.44;101028.53;31222511;28;96754;-61
2023/10/04 13:32:40;;;;;;;6.10;1.70;;;;;;;31.84;23.47;101021.41;31221206;28;96773;-76
2023/10/04 13:47:43;;;;;;;3.72;1.90;;;;;;;29.98;25.63;101011.00;31218567;27;98159;-75
2023/10/04 14:02:44;;;;;;;4.77;2.00;;;;;;;25.95;29.08;101021.03;31219692;28;96822;-61
2023/10/04 14:17:45;;;;;;;6.00;2.30;;;;;;;26.31;29.20;101015.22;31218849;27;96681;-73
2023/10/04 14:32:49;;;;;;;5.93;2.40;;;;;;;24.03;32.81;101023.47;31219074;28;96724;-74
2023/10/04 14:47:50;;;;;;;5.87;2.57;;;;;;;21.52;36.49;101007.56;31216625;27;97626;-67
2023/10/04 15:02:56;;;;;;;9.93;2.10;;;;;;;20.02;39.54;101009.72;31214439;28;97311;-63
2023/10/04 15:17:56;;;;;;;6.70;2.00;;;;;;;18.82;42.31;101000.63;31212006;28;97112;-61
2023/10/04 15:32:57;;;;;;;6.00;2.10;;;;;;;17.87;44.69;101006.66;31210047;28;97088;-77
2023/10/04 15:47:57;;;;;;;7.78;2.40;;;;;;;17.20;46.49;100998.09;31209401;27;111336;-69
2023/10/04 16:02:57;;;;;;;7.00;2.40;;;;;;;16.46;48.45;101007.28;31209249;28;96676;-67
2023/10/04 16:17:58;;;;;;;6.60;2.35;;;;;;;15.78;50.06;101034.25;31186946;28;112662;-62
2023/10/04 16:32:58;;;;;;;5.97;2.20;;;;;;;15.20;52.06;101045.53;31212192;28;96714;-75
2023/10/04 16:47:58;;;;;;;6.65;2.80;;;;;;;14.77;53.53;101047.81;31225765;27;113420;-69
2023/10/04 17:02:59;;;;;;;5.18;2.67;;;;;;;14.37;54.53;101047.81;31223365;28;98007;-60
2023/10/04 17:17:59;;;;;;;8.93;2.90;;;;;;;14.09;55.48;101058.13;31223131;28;103912;-60
2023/10/04 17:32:59;;;;;;;8.70;3.05;;;;;;;13.74;56.61;101057.56;31222761;28;97307;-61
2023/10/04 17:48:00;;;;;;;8.20;3.45;;;;;;;13.37;57.91;101065.13;31218753;27;97316;-67
2023/10/04 18:03:01;;;;;;;7.43;3.20;;;;;;;13.07;59.02;101069.25;31219248;28;96749;-66
2023/10/04 18:18:02;;;;;;;7.17;2.77;;;;;;;12.65;60.17;101091.53;31218824;28;96747;-60
2023/10/04 18:33:03;;;;;;;9.63;3.75;;;;;;;12.38;61.84;101087.25;31217676;28;97015;-62
2023/10/04 18:48:05;;;;;;;9.57;3.92;;;;;;;12.30;62.44;101096.91;31216127;28;97057;-61
2023/10/04 19:03:05;;;;;;;14.40;3.30;;;;;;;12.17;62.67;101099.19;31214371;27;96817;-62
2023/10/04 19:18:06;;;;;;;11.77;3.97;;;;;;;12.06;62.76;101100.28;31212986;28;104865;-60
2023/10/04 19:33:08;;;;;;;14.03;4.47;;;;;;;11.99;63.75;101102.75;31212210;28;97400;-61
2023/10/04 19:48:08;;;;;;;8.40;3.92;;;;;;;12.00;63.69;101108.91;31210595;28;97300;-64
2023/10/04 20:03:11;;;;;;;9.10;4.25;;;;;;;12.05;64.52;101097.78;31207879;27;97491;-61
2023/10/04 20:18:12;;;;;;;9.00;3.90;;;;;;;12.05;64.45;101101.28;31207732;28;97176;-67
2023/10/04 20:33:12;;;;;;;13.07;4.82;;;;;;;11.99;64.34;101101.91;31206556;28;97249;-65
2023/10/04 20:48:14;;;;;;;10.02;4.45;;;;;;;11.87;64.96;101087.13;31205028;28;111697;-69
2023/10/04 21:03:16;;;;;;;7.37;3.30;;;;;;;11.65;64.38;101065.28;31204639;28;97367;-72
2023/10/04 21:18:16;;;;;;;9.37;4.33;;;;;;;11.43;65.46;101063.94;31212432;27;97605;-67
2023/10/04 21:33:25;;;;;;;11.45;5.00;;;;;;;11.05;66.08;101074.75;31224791;28;97121;-61
2023/10/04 21:48:29;;;;;;;11.57;4.87;;;;;;;10.72;66.38;101061.09;31224497;27;97296;-63
2023/10/04 22:03:29;;;;;;;11.00;4.47;;;;;;;10.56;67.64;101034.28;31222840;28;97109;-75
2023/10/04 22:18:30;;;;;;;9.40;4.32;;;;;;;10.38;67.51;101026.25;31222581;28;96730;-69
2023/10/04 22:33:30;;;;;;;8.43;4.20;;;;;;;10.15;67.74;100999.97;31219926;27;97021;-61
2023/10/04 22:48:31;;;;;;;13.07;4.45;;;;;;;10.12;68.41;101016.25;31218941;28;97119;-60
2023/10/04 23:03:31;;;;;;;9.15;4.43;;;;;;;10.15;68.77;100984.00;31216724;28;97761;-60
2023/10/04 23:18:35;;;;;;;12.18;4.65;;;;;;;10.07;68.97;100976.72;31217285;28;97903;-63
2023/10/04 23:33:38;;;;;;;12.90;5.17;;;;;;;10.06;69.21;100969.75;31215654;28;97072;-61
2023/10/04 23:48:39;;;;;;;10.33;4.07;;;;;;;9.97;69.41;100965.31;31212906;28;96742;-60
